createdAt,value
2022-09-23T00:08:00.434Z,6.5
2022-09-23T00:18:02.155Z,6.4
2022-09-23T00:28:04.475Z,6.5
2022-09-23T00:38:06.449Z,6.5
2022-09-23T00:48:08.300Z,6.4
2022-09-23T00:58:10.394Z,6.3
2022-09-23T01:18:14.794Z,6.2
2022-09-23T01:28:16.792Z,6.4
2022-09-23T01:38:19.264Z,6.4
2022-09-23T01:58:23.335Z,6.4
2022-09-23T02:08:25.400Z,6.5
2022-09-23T02:28:30.146Z,6.3
2022-09-23T02:38:32.524Z,6.2
2022-09-23T02:48:35.035Z,6.2
2022-09-23T02:58:37.354Z,6.2
2022-09-23T03:08:39.508Z,6.2
2022-09-23T03:18:42.109Z,6.1
2022-09-23T03:28:44.517Z,6.2
2022-09-23T03:38:46.651Z,6.2
2022-09-23T03:48:48.782Z,6
2022-09-23T03:58:51.047Z,5.8
2022-09-23T04:08:52.988Z,5.7
2022-09-23T04:18:54.654Z,5.8
2022-09-23T04:28:56.481Z,5.7
2022-09-23T04:38:58.305Z,5.6
2022-09-23T04:49:00.456Z,5.5
2022-09-23T04:59:03.019Z,5.4
2022-09-23T05:09:05.520Z,5.3
2022-09-23T05:19:07.740Z,5.4
2022-09-23T05:39:12.410Z,5.5
2022-09-23T05:49:14.918Z,5.5
2022-09-23T05:59:17.447Z,5.6
2022-09-23T06:09:19.075Z,5.7
2022-09-23T06:29:23.434Z,6.2
2022-09-23T06:39:25.335Z,6.5
2022-09-23T06:49:27.763Z,7
2022-09-23T07:09:32.537Z,8.2
2022-09-23T07:19:34.730Z,9.2
2022-09-23T07:29:45.861Z,10.1
2022-09-23T07:39:38.906Z,10.8
2022-09-23T07:49:40.673Z,11.4
2022-09-23T07:59:49.544Z,12
2022-09-23T08:09:44.995Z,12.4
2022-09-23T08:19:54.314Z,12.9
2022-09-23T08:29:56.509Z,13.3
2022-09-23T08:39:51.184Z,13.5
2022-09-23T08:49:52.991Z,13.9
2022-09-23T08:59:54.890Z,14
2022-09-23T09:09:57.155Z,14.4
2022-09-23T09:19:59.511Z,14.5
2022-09-23T09:30:01.364Z,14.8
2022-09-23T09:40:03.886Z,15.1
2022-09-23T10:00:07.759Z,15.6
2022-09-23T10:10:21.994Z,15.6
2022-09-23T10:20:11.764Z,15.8
2022-09-23T10:30:13.529Z,15.8
2022-09-23T10:50:17.369Z,16.1
2022-09-23T11:00:19.048Z,16.1
2022-09-23T11:10:29.371Z,16.5
2022-09-23T11:20:23.165Z,16.7
2022-09-23T11:30:32.274Z,16.9
2022-09-23T11:40:27.282Z,16.7
2022-09-23T11:50:29.450Z,17.4
2022-09-23T12:00:31.785Z,17.8
2022-09-23T12:10:33.833Z,17.9
2022-09-23T12:20:36.405Z,17.8
2022-09-23T12:30:38.245Z,17.7
2022-09-23T12:40:40.214Z,17.7
2022-09-23T12:50:42.549Z,17.8
2022-09-23T13:00:44.939Z,17.8
2022-09-23T13:10:47.282Z,17.7
2022-09-23T13:20:49.904Z,17.7
2022-09-23T13:30:51.725Z,17.8
2022-09-23T13:40:53.540Z,17.8
2022-09-23T13:50:55.456Z,17.8
2022-09-23T14:10:59.612Z,18
2022-09-23T14:31:04.113Z,17.7
2022-09-23T14:41:06.435Z,17.6
2022-09-23T14:51:10.860Z,17.5
2022-09-23T15:11:12.946Z,17.1
2022-09-23T15:21:14.755Z,17
2022-09-23T15:31:16.925Z,16.9
2022-09-23T15:41:18.576Z,16.9
2022-09-23T15:51:20.903Z,16.7
2022-09-23T16:01:30.135Z,16.5
2022-09-23T16:11:24.720Z,16.2
2022-09-23T16:21:26.487Z,16
2022-09-23T16:31:35.827Z,15.7
2022-09-23T16:41:30.832Z,15.6
2022-09-23T17:01:34.676Z,15.2
2022-09-23T17:11:37.010Z,14.9
2022-09-23T17:21:39.527Z,14.4
2022-09-23T17:31:41.932Z,13.9
2022-09-23T17:51:46.441Z,13.2
2022-09-23T18:01:48.452Z,13.2
2022-09-23T18:11:50.218Z,13.1
2022-09-23T18:31:53.798Z,13.2
2022-09-23T18:41:55.691Z,13.1
2022-09-23T18:51:58.132Z,12.9
2022-09-23T19:02:00.459Z,12.8
2022-09-23T19:12:02.687Z,12.7
2022-09-23T19:22:11.485Z,12.7
2022-09-23T19:32:13.341Z,12.6
2022-09-23T19:42:08.605Z,12.6
2022-09-23T19:52:11.171Z,12.5
2022-09-23T20:02:13.636Z,12.4
2022-09-23T20:12:16.272Z,12.2
2022-09-23T20:22:18.302Z,12.1
2022-09-23T20:42:22.601Z,12
2022-09-23T20:52:24.357Z,12
2022-09-23T21:02:26.176Z,11.9
2022-09-23T21:22:30.609Z,11.9
2022-09-23T21:32:33.095Z,12
2022-09-23T21:42:34.971Z,12
2022-09-23T22:02:38.759Z,11.8
2022-09-23T22:12:40.976Z,11.8
2022-09-23T22:22:42.975Z,11.7
2022-09-23T22:52:49.156Z,11.7
2022-09-23T23:02:51.334Z,11.8
2022-09-23T23:12:53.513Z,11.8
2022-09-23T23:22:55.905Z,11.8
2022-09-23T23:23:02.803Z,11.8
2022-09-23T23:33:04.648Z,11.7
2022-09-23T23:43:13.439Z,11.6
2022-09-23T23:53:08.368Z,11.8
